Time;durP1;ratioP1;P1;durP2;ratioP2;P2;SDS_P1;SDS_P2;PMS_P1;PMS_P2;Temp;Humidity;BMP_temperature;BMP_pressure;BME280_temperature;BME280_humidity;BME280_pressure;Samples;Min_cycle;Max_cycle;Signal;HPM_P1;HPM_P2
2022/02/27 00:01:16;;;;;;;14.83;3.90;;;4.20;99.90;;;;;;5190592;22;20162;-94
2022/02/27 00:03:25;;;;;;;14.70;3.40;;;4.20;99.90;;;;;;5191677;22;20162;-94
2022/02/27 00:05:45;;;;;;;13.87;3.97;;;4.20;99.90;;;;;;5164573;23;20210;-95
2022/02/27 00:07:49;;;;;;;11.50;3.30;;;4.20;99.90;;;;;;5189191;23;20131;-93
2022/02/27 00:10:03;;;;;;;;;;;;;;;;;;;;;
2022/02/27 00:12:12;;;;;;;14.43;3.50;;;4.10;99.90;;;;;;5217046;22;20142;-94
2022/02/27 00:14:33;;;;;;;16.47;3.90;;;4.00;99.90;;;;;;5216462;22;20185;-93
2022/02/27 00:16:33;;;;;;;12.73;3.63;;;4.00;99.90;;;;;;5165816;23;20152;-93
2022/02/27 00:19:00;;;;;;;11.20;3.47;;;3.90;99.90;;;;;;5191557;22;20166;-96
2022/02/27 00:21:26;;;;;;;12.67;3.93;;;4.00;99.90;;;;;;5152611;23;20166;-95
2022/02/27 00:30:32;;;;;;;20.73;4.10;;;3.90;99.90;;;;;;5184521;22;20517;-94
2022/02/27 00:32:33;;;;;;;13.13;4.03;;;3.90;99.90;;;;;;5165619;23;20151;-93
2022/02/27 00:34:42;;;;;;;18.47;4.10;;;3.90;99.90;;;;;;5191633;22;20139;-94
2022/02/27 07:55:27;;;;;;;14.93;3.10;;;7.40;99.90;;;;;;5136905;22;20232;-94
2022/02/27 07:57:55;;;;;;;11.60;3.10;;;7.60;99.90;;;;;;5138380;23;20158;-94
2022/02/27 08:00:40;;;;;;;9.07;2.70;;;7.70;99.90;;;;;;5091674;23;20148;-93
2022/02/27 08:03:18;;;;;;;;;;;;;;;;;;;;;
2022/02/27 08:05:42;;;;;;;7.77;2.43;;;7.40;99.90;;;;;;5170877;22;20189;-94
2022/02/27 08:08:23;;;;;;;8.53;2.63;;;7.30;99.90;;;;;;5171884;22;20181;-94
2022/02/27 08:10:38;;;;;;;12.37;2.53;;;7.40;99.90;;;;;;5198348;22;20196;-94
2022/02/27 08:13:23;;;;;;;9.27;2.53;;;7.30;99.90;;;;;;5146006;23;20154;-95
2022/02/27 08:15:24;;;;;;;11.53;3.10;;;7.10;99.90;;;;;;5195571;22;20174;-93
2022/02/27 08:17:38;;;;;;;;;;;;;;;;;;;;;
2022/02/27 08:19:55;;;;;;;12.20;2.33;;;7.80;99.90;;;;;;5170200;23;20155;-93
2022/02/27 08:21:56;;;;;;;9.37;2.30;;;7.80;99.90;;;;;;5144492;23;20151;-93
2022/02/27 08:24:09;;;;;;;7.33;1.87;;;7.70;99.90;;;;;;5170238;23;20501;-93
2022/02/27 08:26:32;;;;;;;11.27;2.13;;;7.40;99.90;;;;;;5147042;23;20167;-94
2022/02/27 08:28:51;;;;;;;9.23;2.10;;;7.50;99.90;;;;;;5172380;23;20223;-94
2022/02/27 08:30:52;;;;;;;6.67;1.90;;;7.20;99.90;;;;;;5170564;23;20171;-93
2022/02/27 08:32:56;;;;;;;8.70;1.93;;;7.30;99.90;;;;;;5170091;23;20155;-95
2022/02/27 08:35:04;;;;;;;8.10;2.03;;;7.50;99.90;;;;;;5149358;23;20640;-93
2022/02/27 08:37:11;;;;;;;6.77;1.60;;;7.50;99.90;;;;;;5172543;23;20170;-93
2022/02/27 08:39:13;;;;;;;7.23;1.70;;;7.40;99.90;;;;;;5170491;23;20154;-95
2022/02/27 08:41:19;;;;;;;11.87;1.90;;;7.40;99.90;;;;;;5143417;23;20159;-93
2022/02/27 08:43:23;;;;;;;7.93;1.80;;;7.60;99.90;;;;;;5170872;23;20628;-94
2022/02/27 08:45:24;;;;;;;8.27;1.60;;;7.50;99.90;;;;;;5169481;22;20167;-93
2022/02/27 08:47:25;;;;;;;7.90;1.70;;;7.60;99.90;;;;;;5169410;23;20230;-94
2022/02/27 08:49:26;;;;;;;8.80;1.67;;;7.80;99.90;;;;;;5145444;23;20191;-94
2022/02/27 08:51:27;;;;;;;8.47;1.40;;;7.60;99.90;;;;;;5144514;23;20164;-93
2022/02/27 08:53:30;;;;;;;5.13;1.50;;;7.80;99.90;;;;;;5195474;22;20158;-93
2022/02/27 08:55:31;;;;;;;9.17;1.27;;;7.90;99.90;;;;;;5143276;23;20195;-94
2022/02/27 08:57:32;;;;;;;5.53;1.47;;;7.50;99.90;;;;;;5170348;23;20635;-92
2022/02/27 08:59:32;;;;;;;5.53;1.30;;;7.50;99.90;;;;;;5144104;23;20152;-93
2022/02/27 09:01:33;;;;;;;7.47;1.40;;;7.60;99.90;;;;;;5144858;23;20148;-93
2022/02/27 09:03:34;;;;;;;6.37;1.23;;;7.80;99.90;;;;;;5168158;23;20487;-93
2022/02/27 09:05:36;;;;;;;6.83;1.50;;;7.70;99.90;;;;;;5168951;22;20171;-94
2022/02/27 09:07:37;;;;;;;4.13;1.40;;;7.60;99.90;;;;;;5168965;23;20497;-93
2022/02/27 09:09:42;;;;;;;8.67;1.70;;;7.80;99.90;;;;;;5144172;23;20187;-92
2022/02/27 09:11:43;;;;;;;4.83;1.30;;;8.00;99.90;;;;;;5143485;23;20158;-94
2022/02/27 09:13:45;;;;;;;6.43;1.47;;;7.70;99.90;;;;;;5170597;22;20155;-94
2022/02/27 09:15:46;;;;;;;5.27;1.30;;;7.70;99.90;;;;;;5144678;23;20629;-95
2022/02/27 09:17:47;;;;;;;5.57;1.50;;;7.50;99.90;;;;;;5193953;22;20157;-93
2022/02/27 09:19:49;;;;;;;6.83;1.03;;;7.20;99.90;;;;;;5143421;23;20154;-93
2022/02/27 09:21:49;;;;;;;5.20;1.10;;;7.50;99.90;;;;;;5194136;22;20158;-94
2022/02/27 09:23:51;;;;;;;7.93;1.40;;;7.60;99.90;;;;;;5144376;23;20166;-94
2022/02/27 09:25:54;;;;;;;5.60;1.27;;;7.70;99.90;;;;;;5169214;22;20175;-93
2022/02/27 09:27:54;;;;;;;3.43;1.10;;;7.70;99.90;;;;;;5170124;23;20147;-94
2022/02/27 09:29:58;;;;;;;8.27;1.47;;;7.50;99.90;;;;;;5170452;23;20191;-93
2022/02/27 09:32:02;;;;;;;3.47;1.30;;;7.50;99.90;;;;;;5145881;23;20586;-94
2022/02/27 09:34:04;;;;;;;5.47;1.60;;;7.80;99.90;;;;;;5195387;22;20154;-94
2022/02/27 09:36:07;;;;;;;7.63;1.27;;;8.00;99.90;;;;;;5196903;22;20243;-94
2022/02/27 09:38:08;;;;;;;4.03;1.37;;;7.80;99.90;;;;;;5170800;23;20150;-93
2022/02/27 09:40:09;;;;;;;5.87;1.13;;;7.90;99.90;;;;;;5170840;23;20158;-94
2022/02/27 09:42:10;;;;;;;5.13;1.30;;;8.40;99.90;;;;;;5171221;23;20143;-95
2022/02/27 09:44:12;;;;;;;5.88;1.17;;;8.70;99.90;;;;;;5144580;23;20154;-93
2022/02/27 09:46:15;;;;;;;5.23;1.30;;;8.70;99.90;;;;;;5170741;23;20170;-94
2022/02/27 09:48:16;;;;;;;5.80;1.30;;;8.50;99.90;;;;;;5146139;23;20167;-92
2022/02/27 09:50:19;;;;;;;5.27;1.20;;;8.90;99.90;;;;;;5145707;23;20514;-94
2022/02/27 09:52:21;;;;;;;3.17;1.20;;;8.90;99.90;;;;;;5144831;23;20159;-94
2022/02/27 09:54:22;;;;;;;7.82;1.50;;;8.90;99.90;;;;;;5144687;23;20154;-93
2022/02/27 09:56:23;;;;;;;7.05;1.50;;;9.30;99.90;;;;;;5146595;23;20151;-93
2022/02/27 09:58:24;;;;;;;3.42;1.15;;;9.50;99.90;;;;;;5209381;22;20198;-94
2022/02/27 10:00:25;;;;;;;3.00;1.00;;;9.10;99.90;;;;;;5187120;23;20242;-93
2022/02/27 10:02:26;;;;;;;4.63;1.23;;;8.40;99.90;;;;;;5190327;23;20135;-93
2022/02/27 10:04:36;;;;;;;4.40;1.60;;;8.20;99.90;;;;;;5212084;22;20150;-92
2022/02/27 10:06:49;;;;;;;4.10;1.00;;;7.90;99.90;;;;;;5213597;22;20142;-92
2022/02/27 10:08:57;;;;;;;4.27;1.23;;;7.70;99.90;;;;;;5164756;23;20198;-92
2022/02/27 10:11:05;;;;;;;5.30;1.60;;;7.70;99.90;;;;;;5188640;22;20233;-94
2022/02/27 10:13:08;;;;;;;3.83;1.13;;;7.50;99.90;;;;;;5189888;22;20206;-93
2022/02/27 10:15:15;;;;;;;10.63;1.30;;;7.40;99.90;;;;;;5214809;22;20196;-92
2022/02/27 10:17:16;;;;;;;6.53;1.40;;;7.30;99.90;;;;;;5189618;22;20151;-92
2022/02/27 10:19:17;;;;;;;4.83;1.20;;;7.40;99.90;;;;;;5164942;23;20154;-92
2022/02/27 10:21:39;;;;;;;8.10;1.57;;;7.50;99.90;;;;;;5188987;23;20151;-94
2022/02/27 10:23:42;;;;;;;4.50;1.60;;;7.80;99.90;;;;;;5146689;23;20163;-92
2022/02/27 10:25:43;;;;;;;4.53;1.40;;;7.90;99.90;;;;;;5170524;22;20171;-94
2022/02/27 10:28:04;;;;;;;5.33;1.67;;;7.90;99.90;;;;;;5145954;23;20196;-93
2022/02/27 10:30:30;;;;;;;5.60;1.30;;;8.10;99.90;;;;;;5145438;23;20234;-93
2022/02/27 10:32:33;;;;;;;4.27;1.30;;;8.40;99.90;;;;;;5145785;23;20140;-93
2022/02/27 10:34:40;;;;;;;6.23;1.00;;;8.50;99.90;;;;;;5196012;22;20157;-94
2022/02/27 10:37:04;;;;;;;2.40;0.97;;;8.40;99.90;;;;;;5145430;23;20156;-93
2022/02/27 10:39:14;;;;;;;;;;;;;;;;;;;;;
2022/02/27 10:41:23;;;;;;;2.60;0.80;;;8.40;99.90;;;;;;5169757;23;20155;-94
2022/02/27 10:43:23;;;;;;;3.70;0.90;;;8.40;99.90;;;;;;5170364;23;20158;-95
2022/02/27 10:45:33;;;;;;;4.93;0.90;;;8.70;99.90;;;;;;5171297;22;20250;-94
2022/02/27 10:47:46;;;;;;;2.90;0.87;;;8.70;99.90;;;;;;5170299;23;20647;-95
2022/02/27 10:49:58;;;;;;;2.47;0.90;;;8.70;99.90;;;;;;5145724;23;20288;-94
2022/02/27 10:52:16;;;;;;;4.33;1.03;;;9.10;99.90;;;;;;5169858;22;20165;-94
2022/02/27 10:54:47;;;;;;;2.83;0.87;;;9.40;99.90;;;;;;5170563;23;20150;-95
2022/02/27 10:56:50;;;;;;;2.00;0.63;;;9.40;99.90;;;;;;5145375;23;20144;-94
2022/02/27 10:58:56;;;;;;;2.60;0.70;;;9.30;99.90;;;;;;5146161;23;20497;-94
2022/02/27 11:00:58;;;;;;;2.60;0.80;;;9.20;99.90;;;;;;5146502;23;20242;-94
2022/02/27 11:03:04;;;;;;;2.30;0.80;;;9.20;99.90;;;;;;5144227;23;20151;-94
2022/02/27 11:05:12;;;;;;;6.23;0.80;;;9.40;99.90;;;;;;5146692;23;20176;-95
2022/02/27 11:07:19;;;;;;;5.60;0.80;;;9.60;99.90;;;;;;5148134;23;20147;-94
2022/02/27 11:09:20;;;;;;;4.47;0.90;;;9.50;99.90;;;;;;5170212;23;20191;-94
2022/02/27 11:11:43;;;;;;;2.87;0.80;;;9.50;99.90;;;;;;5170514;23;20245;-94
2022/02/27 11:14:07;;;;;;;2.83;0.53;;;9.50;99.90;;;;;;5179593;22;20155;-95
2022/02/27 11:16:20;;;;;;;2.47;0.70;;;9.50;99.90;;;;;;5213129;22;20158;-93
2022/02/27 11:18:27;;;;;;;3.07;0.80;;;9.20;99.90;;;;;;5156815;23;20689;-95
2022/02/27 11:20:42;;;;;;;2.27;0.73;;;9.30;99.90;;;;;;5173279;23;20155;-96
2022/02/27 11:22:47;;;;;;;5.13;0.70;;;9.60;99.90;;;;;;5173727;23;20143;-93
2022/02/27 11:25:10;;;;;;;;;;;;;;;;;;;;;
2022/02/27 11:27:53;;;;;;;3.03;0.90;;;9.80;99.90;;;;;;5170715;22;20157;-96
2022/02/27 11:30:16;;;;;;;5.30;1.03;;;10.00;99.90;;;;;;5144777;23;20188;-96
2022/02/27 11:32:17;;;;;;;3.58;0.60;;;10.00;99.90;;;;;;5171363;23;20143;-94
2022/02/27 11:34:20;;;;;;;2.95;0.60;;;10.00;99.90;;;;;;5195387;22;20145;-94
2022/02/27 11:39:03;;;;;;;2.17;0.80;;;10.40;99.90;;;;;;5170360;22;20155;-94
2022/02/27 11:41:14;;;;;;;2.67;0.80;;;10.60;99.90;;;;;;5145371;23;20205;-94
2022/02/27 11:43:52;;;;;;;2.80;0.90;;;10.40;99.90;;;;;;5170185;23;20197;-94
2022/02/27 11:46:06;;;;;;;2.10;0.63;;;10.50;99.90;;;;;;5146149;23;20179;-94
2022/02/27 11:48:16;;;;;;;1.57;0.60;;;10.40;99.90;;;;;;5145199;23;20217;-95
2022/02/27 11:50:41;;;;;;;2.53;0.70;;;10.40;99.90;;;;;;5146487;23;20194;-94
2022/02/27 11:52:55;;;;;;;1.85;0.60;;;10.20;99.90;;;;;;5172733;22;20159;-94
2022/02/27 11:55:23;;;;;;;2.53;0.60;;;10.40;99.90;;;;;;5146363;23;20274;-95
2022/02/27 11:57:32;;;;;;;2.63;0.88;;;10.30;99.90;;;;;;5158434;23;20151;-95
2022/02/27 12:00:02;;;;;;;2.13;0.65;;;10.30;99.90;;;;;;5146115;23;20139;-94
2022/02/27 12:02:05;;;;;;;1.35;0.60;;;10.10;99.90;;;;;;5170164;23;20236;-93
2022/02/27 12:07:19;;;;;;;1.27;0.50;;;10.10;99.90;;;;;;5163533;22;20259;-91
2022/02/27 12:09:20;;;;;;;1.13;0.50;;;10.50;99.90;;;;;;5144953;23;20191;-93
2022/02/27 12:11:30;;;;;;;2.15;0.70;;;10.50;99.90;;;;;;5194403;22;20145;-93
2022/02/27 12:13:31;;;;;;;2.28;0.50;;;10.80;99.90;;;;;;5171824;23;20154;-91
2022/02/27 12:15:36;;;;;;;1.58;0.65;;;11.00;99.90;;;;;;5173158;22;20170;-94
2022/02/27 12:17:51;;;;;;;2.67;0.85;;;11.20;99.90;;;;;;5169192;23;20181;-95
2022/02/27 12:19:52;;;;;;;1.52;0.50;;;10.90;99.90;;;;;;5168973;23;20153;-93
2022/02/27 12:21:57;;;;;;;1.83;0.70;;;10.60;99.90;;;;;;5194395;22;20154;-93
2022/02/27 12:24:13;;;;;;;1.23;0.50;;;10.50;99.90;;;;;;5144124;23;20154;-93
2022/02/27 12:26:36;;;;;;;1.95;0.77;;;10.40;99.90;;;;;;5172703;23;20166;-91
2022/02/27 12:28:52;;;;;;;2.38;0.60;;;10.60;99.90;;;;;;5146099;23;20151;-91
2022/02/27 12:30:53;;;;;;;1.13;0.40;;;11.10;99.90;;;;;;5198179;22;20162;-94
2022/02/27 12:33:08;;;;;;;2.95;0.60;;;11.30;99.90;;;;;;5172145;23;20155;-93
2022/02/27 12:35:08;;;;;;;3.00;0.68;;;11.20;99.90;;;;;;5170709;22;20166;-93
2022/02/27 12:37:11;;;;;;;4.22;0.70;;;11.10;99.90;;;;;;5170206;23;20166;-92
2022/02/27 12:39:14;;;;;;;3.97;0.68;;;11.20;99.90;;;;;;5146076;23;20152;-92
2022/02/27 12:41:19;;;;;;;3.90;1.20;;;11.20;99.90;;;;;;5146088;23;20147;-91
2022/02/27 12:43:19;;;;;;;2.92;0.52;;;11.00;99.90;;;;;;5145293;23;20147;-92
2022/02/27 12:45:34;;;;;;;2.17;0.85;;;11.10;99.90;;;;;;5146945;23;20203;-92
2022/02/27 12:47:34;;;;;;;3.40;0.90;;;11.00;99.90;;;;;;5170427;23;20238;-93
2022/02/27 12:52:01;;;;;;;9.98;0.77;;;10.90;99.90;;;;;;5169967;22;20167;-92
2022/02/27 12:54:02;;;;;;;4.45;0.73;;;10.90;99.90;;;;;;5146660;23;20155;-91
2022/02/27 12:56:04;;;;;;;1.80;0.68;;;11.10;99.90;;;;;;5173230;23;20162;-95
2022/02/27 12:58:07;;;;;;;1.55;0.60;;;11.50;99.90;;;;;;5146044;23;20238;-93
2022/02/27 13:00:10;;;;;;;1.08;0.50;;;11.70;99.90;;;;;;5172693;23;20146;-93
2022/02/27 13:02:22;;;;;;;1.55;0.68;;;11.90;99.90;;;;;;5170543;23;20162;-92
2022/02/27 13:04:31;;;;;;;2.58;0.80;;;12.20;99.90;;;;;;5173549;23;20529;-92
2022/02/27 13:06:39;;;;;;;4.10;1.00;;;12.30;99.90;;;;;;5145760;23;20151;-94
2022/02/27 13:08:51;;;;;;;2.30;1.05;;;12.20;99.90;;;;;;5171175;23;20142;-93
2022/02/27 13:10:52;;;;;;;3.30;0.80;;;12.00;99.90;;;;;;5149482;23;20182;-93
2022/02/27 13:12:54;;;;;;;2.03;0.88;;;12.00;99.90;;;;;;5146439;23;20190;-93
2022/02/27 13:15:00;;;;;;;3.10;0.90;;;11.60;99.90;;;;;;5172536;22;20648;-93
2022/02/27 13:17:00;;;;;;;2.03;0.82;;;11.60;99.90;;;;;;5122528;23;20155;-95
2022/02/27 13:19:02;;;;;;;2.70;0.73;;;11.70;99.90;;;;;;5171756;23;20151;-94
2022/02/27 13:21:05;;;;;;;3.05;0.88;;;11.70;99.90;;;;;;5147178;23;20154;-95
2022/02/27 13:23:14;;;;;;;1.45;0.63;;;11.50;99.90;;;;;;5173979;23;20206;-95
2022/02/27 13:25:26;;;;;;;3.33;0.63;;;11.70;99.90;;;;;;5146190;23;20202;-92
2022/02/27 13:27:45;;;;;;;2.22;0.73;;;11.90;99.90;;;;;;5174323;23;20154;-95
2022/02/27 13:30:02;;;;;;;2.75;1.00;;;12.10;99.90;;;;;;5148548;23;20262;-94
2022/02/27 13:32:05;;;;;;;1.85;0.70;;;12.10;99.90;;;;;;5148800;23;20623;-93
2022/02/27 13:34:15;;;;;;;3.03;0.90;;;12.00;99.90;;;;;;5149678;23;20226;-95
2022/02/27 13:36:20;;;;;;;3.63;0.70;;;12.10;99.90;;;;;;5147854;23;20171;-92
2022/02/27 13:38:28;;;;;;;2.80;1.02;;;12.20;99.90;;;;;;5149405;23;20156;-95
2022/02/27 13:40:58;;;;;;;2.40;0.77;;;12.30;99.90;;;;;;5151218;23;20143;-94
2022/02/27 13:45:36;;;;;;;2.08;0.73;;;12.40;99.90;;;;;;5170731;23;20209;-91
2022/02/27 13:47:37;;;;;;;3.13;0.90;;;12.50;99.90;;;;;;5148324;23;20175;-93
2022/02/27 13:49:37;;;;;;;3.45;1.00;;;12.40;99.90;;;;;;5178474;23;20530;-92
2022/02/27 13:51:38;;;;;;;3.40;0.80;;;12.40;99.90;;;;;;5174058;23;20151;-94
2022/02/27 13:54:24;;;;;;;3.08;0.73;;;12.60;99.90;;;;;;5147018;23;20150;-94
2022/02/27 13:56:25;;;;;;;3.17;0.90;;;12.70;99.90;;;;;;5170549;23;20151;-93
2022/02/27 13:58:31;;;;;;;1.77;0.75;;;12.70;99.90;;;;;;5168894;23;20153;-94
2022/02/27 14:00:33;;;;;;;2.83;0.85;;;12.70;99.90;;;;;;5143967;23;20155;-93
2022/02/27 14:02:36;;;;;;;1.70;0.60;;;12.70;99.90;;;;;;5166969;23;20143;-93
2022/02/27 14:04:58;;;;;;;1.90;0.90;;;12.50;99.90;;;;;;5144973;23;20155;-93
2022/02/27 14:06:59;;;;;;;1.90;1.10;;;12.10;99.90;;;;;;5141947;23;20154;-92
2022/02/27 14:09:00;;;;;;;2.85;0.93;;;12.30;99.90;;;;;;5143646;23;20156;-94
2022/02/27 14:11:08;;;;;;;1.75;0.55;;;12.20;99.90;;;;;;5169456;23;20147;-93
2022/02/27 14:13:14;;;;;;;4.03;1.00;;;12.10;99.90;;;;;;5144277;23;20246;-93
2022/02/27 14:15:30;;;;;;;2.92;1.02;;;12.20;99.90;;;;;;5193815;22;20161;-94
2022/02/27 14:17:43;;;;;;;2.25;0.73;;;12.30;99.90;;;;;;5143218;23;20152;-93
2022/02/27 14:19:44;;;;;;;2.83;1.20;;;12.30;99.90;;;;;;5168318;23;20158;-93
2022/02/27 14:21:45;;;;;;;2.40;0.95;;;12.50;99.90;;;;;;5168479;23;20143;-94
2022/02/27 14:23:59;;;;;;;3.13;0.98;;;12.40;99.90;;;;;;5171071;23;20634;-92
2022/02/27 14:26:01;;;;;;;2.17;0.77;;;12.10;99.90;;;;;;5144611;23;20178;-94
2022/02/27 14:28:10;;;;;;;2.63;0.70;;;11.90;99.90;;;;;;5143013;23;20151;-92
2022/02/27 14:30:27;;;;;;;3.15;1.02;;;11.90;99.90;;;;;;5142366;23;20183;-93
2022/02/27 14:32:33;;;;;;;2.45;0.93;;;12.00;99.90;;;;;;5143548;23;20144;-93
2022/02/27 14:34:34;;;;;;;2.45;1.00;;;12.10;99.90;;;;;;5168411;23;20478;-93
2022/02/27 14:36:34;;;;;;;1.73;0.80;;;12.20;99.90;;;;;;5167737;23;20151;-93
2022/02/27 14:38:37;;;;;;;3.00;1.13;;;12.20;99.90;;;;;;5168189;23;20147;-93
2022/02/27 14:40:39;;;;;;;3.90;1.10;;;12.10;99.90;;;;;;5143473;23;20148;-93
2022/02/27 14:42:40;;;;;;;3.95;1.23;;;12.30;99.90;;;;;;5169167;23;20605;-93
2022/02/27 14:44:42;;;;;;;3.97;0.80;;;12.40;99.90;;;;;;5170118;22;20159;-93
2022/02/27 14:46:46;;;;;;;5.72;1.00;;;12.50;99.90;;;;;;5143404;23;20152;-93
2022/02/27 14:48:46;;;;;;;1.92;0.70;;;12.30;99.90;;;;;;5143384;23;20148;-93
2022/02/27 14:50:47;;;;;;;1.40;0.80;;;12.40;99.90;;;;;;5168447;23;20158;-93
2022/02/27 14:52:48;;;;;;;3.92;0.73;;;12.40;99.90;;;;;;5145595;23;20227;-93
2022/02/27 14:54:53;;;;;;;3.15;0.90;;;12.30;99.90;;;;;;5169484;23;20273;-92
2022/02/27 14:56:56;;;;;;;2.92;0.93;;;12.20;99.90;;;;;;5144951;23;20151;-93
2022/02/27 14:58:57;;;;;;;2.03;0.90;;;12.10;99.90;;;;;;5143095;23;20158;-91
2022/02/27 15:00:59;;;;;;;1.67;0.80;;;11.80;99.90;;;;;;5168931;23;20143;-92
2022/02/27 15:03:01;;;;;;;2.92;0.88;;;11.70;99.90;;;;;;5143749;23;20226;-93
2022/02/27 15:05:04;;;;;;;3.80;1.15;;;11.80;99.90;;;;;;5167829;22;20250;-94
2022/02/27 15:07:05;;;;;;;1.55;0.60;;;11.80;99.90;;;;;;5168987;23;20155;-94
2022/02/27 15:09:06;;;;;;;4.10;0.90;;;11.90;99.90;;;;;;5168878;23;20206;-92
2022/02/27 15:11:07;;;;;;;2.17;1.10;;;12.00;99.90;;;;;;5144728;23;20151;-93
2022/02/27 15:13:10;;;;;;;2.10;0.85;;;11.80;99.90;;;;;;5170474;23;20238;-92
2022/02/27 15:15:11;;;;;;;3.92;1.00;;;11.80;99.90;;;;;;5145570;23;20171;-94
2022/02/27 15:17:13;;;;;;;3.42;1.08;;;11.70;99.90;;;;;;5170145;23;20143;-93
2022/02/27 15:19:15;;;;;;;2.78;1.40;;;11.70;99.90;;;;;;5169479;23;20153;-92
2022/02/27 15:21:16;;;;;;;2.92;0.90;;;11.80;99.90;;;;;;5119786;23;20179;-93
2022/02/27 15:23:16;;;;;;;3.30;0.98;;;12.00;99.90;;;;;;5144695;23;20145;-93
2022/02/27 15:25:19;;;;;;;2.08;0.85;;;12.10;99.90;;;;;;5146107;23;20172;-92
2022/02/27 15:27:20;;;;;;;3.72;0.98;;;12.00;99.90;;;;;;5145297;23;20155;-92
2022/02/27 15:29:22;;;;;;;1.30;0.82;;;12.10;99.90;;;;;;5170749;23;20217;-92
2022/02/27 15:31:23;;;;;;;4.28;1.00;;;12.20;99.90;;;;;;5146231;23;20190;-93
2022/02/27 15:33:34;;;;;;;3.13;1.10;;;12.30;99.90;;;;;;5170427;23;20206;-94
2022/02/27 15:35:37;;;;;;;2.30;0.75;;;12.10;99.90;;;;;;5174070;23;20345;-94
2022/02/27 15:37:46;;;;;;;2.63;0.85;;;12.10;99.90;;;;;;5194381;22;20228;-94
2022/02/27 15:40:01;;;;;;;1.95;0.70;;;11.90;99.90;;;;;;5169814;23;20150;-93
2022/02/27 15:42:04;;;;;;;3.70;1.05;;;11.80;99.90;;;;;;5170613;23;20153;-94
2022/02/27 15:44:05;;;;;;;2.78;1.15;;;11.90;99.90;;;;;;5169231;23;20167;-94
2022/02/27 15:46:10;;;;;;;2.63;1.00;;;12.00;99.90;;;;;;5144441;23;20168;-93
2022/02/27 15:48:25;;;;;;;2.28;0.80;;;12.10;99.90;;;;;;5170654;23;20151;-95
2022/02/27 15:50:33;;;;;;;4.22;1.10;;;12.10;99.90;;;;;;5144996;22;20400;-94
2022/02/27 15:52:37;;;;;;;2.50;0.90;;;12.10;99.90;;;;;;5145281;23;20482;-95
2022/02/27 15:54:38;;;;;;;2.40;1.05;;;12.20;99.90;;;;;;5170815;22;20155;-94
2022/02/27 15:56:39;;;;;;;3.83;1.02;;;12.30;99.90;;;;;;5169027;23;20143;-93
2022/02/27 15:58:43;;;;;;;2.95;0.95;;;12.30;99.90;;;;;;5144389;23;20148;-94
2022/02/27 16:01:15;;;;;;;3.00;0.93;;;12.30;99.90;;;;;;5169118;23;20220;-93
2022/02/27 16:03:16;;;;;;;2.17;0.88;;;12.10;99.90;;;;;;5143691;23;20147;-93
2022/02/27 16:05:18;;;;;;;4.57;0.82;;;12.00;99.90;;;;;;5169191;22;20174;-94
2022/02/27 16:08:24;;;;;;;;;;;;;;;;;;;;;
2022/02/27 16:10:50;;;;;;;1.83;0.88;;;12.00;99.90;;;;;;5182576;22;20188;-93
2022/02/27 16:13:01;;;;;;;2.05;1.00;;;11.90;99.90;;;;;;5164217;23;20230;-94
2022/02/27 16:15:15;;;;;;;3.72;1.20;;;11.80;99.90;;;;;;5169887;22;20170;-94
2022/02/27 16:17:18;;;;;;;1.75;1.00;;;11.70;99.90;;;;;;5144833;23;20194;-95
2022/02/27 16:19:20;;;;;;;2.78;0.90;;;11.60;99.90;;;;;;5195823;22;20601;-94
2022/02/27 16:21:40;;;;;;;2.50;1.00;;;11.50;99.90;;;;;;5169885;23;20193;-94
2022/02/27 16:23:41;;;;;;;2.78;1.00;;;11.60;99.90;;;;;;5168735;23;20147;-95
2022/02/27 16:25:59;;;;;;;3.75;1.15;;;11.60;99.90;;;;;;5195354;22;20232;-92
2022/02/27 16:28:14;;;;;;;5.18;1.23;;;11.50;99.90;;;;;;5145839;22;20148;-94
2022/02/27 16:30:22;;;;;;;2.85;1.00;;;11.60;99.90;;;;;;5145818;23;20198;-93
2022/02/27 16:32:23;;;;;;;4.28;1.17;;;11.50;99.90;;;;;;5168819;23;20229;-95
2022/02/27 16:34:24;;;;;;;3.08;1.08;;;11.50;99.90;;;;;;5144731;23;20158;-95
2022/02/27 16:36:26;;;;;;;3.67;1.10;;;11.40;99.90;;;;;;5169984;23;20151;-93
2022/02/27 16:38:41;;;;;;;2.33;0.88;;;11.40;99.90;;;;;;5144507;23;20179;-94
2022/02/27 16:40:45;;;;;;;2.33;1.00;;;11.40;99.90;;;;;;5143917;23;20335;-94
2022/02/27 16:42:50;;;;;;;3.40;1.25;;;11.30;99.90;;;;;;5169299;23;20155;-93
2022/02/27 16:44:59;;;;;;;3.78;1.00;;;11.30;99.90;;;;;;5169452;22;20186;-94
2022/02/27 16:47:06;;;;;;;2.38;1.17;;;11.40;99.90;;;;;;5144450;23;20235;-94
2022/02/27 16:49:07;;;;;;;3.13;1.00;;;11.40;99.90;;;;;;5168989;23;20147;-93
2022/02/27 16:51:10;;;;;;;3.35;1.13;;;11.40;99.90;;;;;;5143674;23;20246;-94
2022/02/27 16:53:27;;;;;;;2.58;1.02;;;11.30;99.90;;;;;;5168566;23;20592;-95
2022/02/27 16:55:42;;;;;;;2.53;1.00;;;11.20;99.90;;;;;;5144579;23;20254;-95
2022/02/27 16:58:01;;;;;;;5.68;1.30;;;11.20;99.90;;;;;;5168740;22;20497;-94
2022/02/27 17:00:33;;;;;;;3.50;1.30;;;11.10;99.90;;;;;;5176985;22;20242;-94
2022/02/27 17:02:38;;;;;;;6.88;1.30;;;11.10;99.90;;;;;;5150060;23;20163;-92
2022/02/27 17:04:44;;;;;;;2.92;1.40;;;11.10;99.90;;;;;;5172862;22;20137;-95
2022/02/27 17:07:15;;;;;;;3.00;1.38;;;11.20;99.90;;;;;;5175028;22;20177;-93
2022/02/27 17:09:42;;;;;;;3.65;1.40;;;11.10;99.90;;;;;;5145559;23;20229;-94
2022/02/27 17:12:00;;;;;;;4.30;1.17;;;10.80;99.90;;;;;;5168667;23;20185;-93
2022/02/27 17:14:10;;;;;;;3.20;1.10;;;10.70;99.90;;;;;;5144336;23;20494;-93
2022/02/27 17:16:16;;;;;;;4.10;1.42;;;10.60;99.90;;;;;;5196500;22;20267;-94
2022/02/27 17:18:58;;;;;;;3.78;1.38;;;10.60;99.90;;;;;;5144670;23;20151;-95
2022/02/27 17:21:31;;;;;;;2.35;1.08;;;10.50;99.90;;;;;;5168935;23;20165;-94
2022/02/27 17:24:01;;;;;;;;;;;;;;;;;;;;;
2022/02/27 17:31:41;;;;;;;3.05;1.25;;;10.30;99.90;;;;;;5148616;23;20163;-95
2022/02/27 17:37:04;;;;;;;2.85;1.48;;;10.30;99.90;;;;;;5093641;23;20157;-93
2022/02/27 17:39:11;;;;;;;3.83;1.55;;;10.30;99.90;;;;;;5143879;23;20147;-94
2022/02/27 17:41:51;;;;;;;4.90;1.30;;;10.20;99.90;;;;;;5165459;22;20530;-94
2022/02/27 17:43:54;;;;;;;4.05;1.42;;;10.10;99.90;;;;;;5143974;23;20634;-94
2022/02/27 17:46:06;;;;;;;3.92;2.03;;;10.10;99.90;;;;;;5168479;23;20174;-94
2022/02/27 17:48:09;;;;;;;4.82;1.83;;;10.10;99.90;;;;;;5168573;23;20157;-94
2022/02/27 17:50:19;;;;;;;6.25;2.80;;;10.00;99.90;;;;;;5168370;23;20190;-93
2022/02/27 17:52:46;;;;;;;5.72;2.50;;;10.00;99.90;;;;;;5145721;23;20147;-95
2022/02/27 17:54:47;;;;;;;7.50;2.88;;;10.00;99.90;;;;;;5144006;23;20171;-95
2022/02/27 17:56:51;;;;;;;5.35;2.90;;;10.00;99.90;;;;;;5168614;22;20155;-96
2022/02/27 17:59:41;;;;;;;8.50;3.30;;;9.90;99.90;;;;;;5143495;23;20216;-95
2022/02/27 18:01:54;;;;;;;5.97;2.70;;;9.90;99.90;;;;;;5170262;23;20181;-93
2022/02/27 18:04:01;;;;;;;5.88;2.50;;;9.90;99.90;;;;;;5143509;23;20148;-93
2022/02/27 18:06:05;;;;;;;7.72;2.85;;;9.80;99.90;;;;;;5143074;23;20262;-94
2022/02/27 18:08:28;;;;;;;9.00;3.20;;;9.90;99.90;;;;;;5142994;23;20225;-93
2022/02/27 18:11:04;;;;;;;6.18;3.08;;;9.80;99.90;;;;;;5168551;23;20194;-94
2022/02/27 18:13:13;;;;;;;4.07;2.45;;;9.70;99.90;;;;;;5144299;23;20163;-93
2022/02/27 18:15:45;;;;;;;4.18;2.10;;;9.60;99.90;;;;;;5168043;22;20641;-93
2022/02/27 18:20:58;;;;;;;;;;;;;;;;;;;;;
2022/02/27 18:23:38;;;;;;;6.03;2.17;;;9.60;99.90;;;;;;5170634;23;20473;-94
2022/02/27 18:25:49;;;;;;;6.35;2.10;;;9.50;99.90;;;;;;5167772;22;20178;-94
2022/02/27 18:27:53;;;;;;;5.75;2.17;;;9.40;99.90;;;;;;5170696;22;20182;-94
2022/02/27 18:29:54;;;;;;;5.28;2.35;;;9.30;99.90;;;;;;5143050;23;20214;-93
2022/02/27 18:32:01;;;;;;;4.78;2.38;;;9.30;99.90;;;;;;5193367;22;20154;-94
2022/02/27 18:34:01;;;;;;;4.07;2.42;;;9.30;99.90;;;;;;5168938;23;20660;-94
2022/02/27 18:36:05;;;;;;;6.55;2.40;;;9.40;99.90;;;;;;5169352;22;20175;-94
2022/02/27 18:38:06;;;;;;;5.33;2.43;;;9.30;99.90;;;;;;5143140;23;20483;-94
2022/02/27 18:40:14;;;;;;;5.43;2.60;;;9.20;99.90;;;;;;5194353;22;20211;-94
2022/02/27 18:42:15;;;;;;;5.20;2.07;;;9.10;99.90;;;;;;5193920;22;20151;-95
2022/02/27 18:44:16;;;;;;;5.03;2.17;;;9.10;99.90;;;;;;5146951;23;20249;-94
2022/02/27 18:46:17;;;;;;;4.63;1.80;;;9.30;99.90;;;;;;5180556;22;20155;-95
2022/02/27 18:48:21;;;;;;;7.60;2.10;;;9.40;99.90;;;;;;5192672;22;20139;-94
2022/02/27 18:50:22;;;;;;;5.50;1.80;;;9.30;99.90;;;;;;5153366;23;20192;-95
2022/02/27 18:52:25;;;;;;;5.40;2.10;;;9.40;99.90;;;;;;5174756;22;20170;-96
2022/02/27 18:54:46;;;;;;;3.47;1.50;;;9.30;99.90;;;;;;5146066;23;20156;-94
2022/02/27 18:56:46;;;;;;;4.63;1.83;;;9.30;99.90;;;;;;5167038;23;20151;-94
2022/02/27 18:58:47;;;;;;;5.60;2.20;;;9.20;99.90;;;;;;5146845;23;20281;-94
2022/02/27 19:00:49;;;;;;;5.97;2.23;;;9.30;99.90;;;;;;5169347;23;20155;-95
2022/02/27 19:02:52;;;;;;;6.17;2.50;;;9.30;99.90;;;;;;5145045;23;20542;-94
2022/02/27 19:04:55;;;;;;;5.43;2.20;;;9.20;99.90;;;;;;5169410;22;20301;-94
2022/02/27 19:06:56;;;;;;;6.53;2.40;;;9.10;99.90;;;;;;5144638;23;20148;-93
2022/02/27 19:08:57;;;;;;;4.97;2.10;;;9.10;99.90;;;;;;5144348;23;20182;-94
2022/02/27 19:11:03;;;;;;;5.63;2.50;;;8.90;99.90;;;;;;5195521;22;20154;-94